createdAt,value
2022-09-14T00:01:44.510Z,97395.88
2022-09-14T00:04:19.340Z,97394.94
2022-09-14T00:06:49.870Z,97393.41
2022-09-14T00:09:21.675Z,97395.75
2022-09-14T00:11:51.915Z,97388.50
2022-09-14T00:14:22.546Z,97384.66
2022-09-14T00:16:52.360Z,97382.19
2022-09-14T00:19:26.596Z,97389.47
2022-09-14T00:21:58.258Z,97389.16
2022-09-14T00:24:30.868Z,97388.69
2022-09-14T00:27:00.934Z,97388.84
2022-09-14T00:29:30.604Z,97374.81
2022-09-14T00:32:00.397Z,97370.97
2022-09-14T00:34:33.016Z,97364.19
2022-09-14T00:37:02.656Z,97340.31
2022-09-14T00:39:32.404Z,97330.59
2022-09-14T00:42:02.228Z,97331.06
2022-09-14T00:45:03.776Z,97335.53
2022-09-14T00:47:35.010Z,97333.09
2022-09-14T00:50:09.218Z,97330.47
2022-09-14T00:52:43.074Z,97325.06
2022-09-14T00:55:15.745Z,97330.16
2022-09-14T00:57:49.645Z,97324.78
2022-09-14T01:00:23.478Z,97321.69
2022-09-14T01:02:53.162Z,97323.22
2022-09-14T01:05:30.753Z,97310.59
2022-09-14T01:08:14.675Z,97307.66
2022-09-14T01:11:01.125Z,97310.28
2022-09-14T01:13:39.907Z,97298.84
2022-09-14T01:16:20.410Z,97297.81
2022-09-14T01:18:54.563Z,97295.63
2022-09-14T01:21:29.534Z,97279.59
2022-09-14T01:24:09.022Z,97263.88
2022-09-14T01:27:11.480Z,97264.97
2022-09-14T01:29:48.452Z,97270.19
2022-09-14T01:32:23.032Z,97292.53
2022-09-14T01:35:00.080Z,97359.56
2022-09-14T01:37:34.373Z,97422.88
2022-09-14T01:40:12.998Z,97440.28
2022-09-14T01:42:45.681Z,97433.75
2022-09-14T01:45:21.818Z,97386.38
2022-09-14T01:47:55.904Z,97389.81
2022-09-14T01:50:34.074Z,97389.63
2022-09-14T01:53:10.438Z,97411.47
2022-09-14T01:55:46.544Z,97411.00
2022-09-14T01:58:25.964Z,97404.50
2022-09-14T02:01:00.548Z,97415.19
2022-09-14T02:03:34.251Z,97408.06
2022-09-14T02:06:11.872Z,97407.09
2022-09-14T02:08:41.901Z,97420.69
2022-09-14T02:11:11.649Z,97427.00
2022-09-14T02:13:41.356Z,97430.44
2022-09-14T02:16:13.854Z,97425.75
2022-09-14T02:18:43.770Z,97434.19
2022-09-14T02:21:19.078Z,97424.56
2022-09-14T02:23:49.769Z,97424.16
2022-09-14T02:26:21.731Z,97422.94
2022-09-14T02:28:55.966Z,97426.69
2022-09-14T02:31:36.826Z,97422.16
2022-09-14T02:34:13.450Z,97405.19
2022-09-14T02:36:51.584Z,97388.31
2022-09-14T02:39:30.176Z,97391.66
2022-09-14T02:42:06.809Z,97395.34
2022-09-14T02:44:44.376Z,97391.19
2022-09-14T02:47:22.024Z,97393.13
2022-09-14T02:49:59.959Z,97401.06
2022-09-14T02:52:36.373Z,97400.63
2022-09-14T02:55:11.503Z,97407.25
2022-09-14T02:58:02.595Z,97404.50
2022-09-14T03:00:35.266Z,97396.25
2022-09-14T03:03:08.537Z,97390.06
2022-09-14T03:05:38.678Z,97381.44
2022-09-14T03:08:10.359Z,97376.13
2022-09-14T03:10:40.877Z,97366.50
2022-09-14T03:13:10.523Z,97347.94
2022-09-14T03:15:40.349Z,97347.75
2022-09-14T03:18:14.573Z,97368.25
2022-09-14T03:20:45.004Z,97364.56
2022-09-14T03:23:16.045Z,97362.13
2022-09-14T03:25:47.326Z,97359.50
2022-09-14T03:28:17.114Z,97362.88
2022-09-14T03:30:46.781Z,97358.06
2022-09-14T03:33:20.067Z,97350.00
2022-09-14T03:35:49.766Z,97351.34
2022-09-14T03:38:19.602Z,97350.78
2022-09-14T03:40:49.321Z,97336.53
2022-09-14T03:43:19.020Z,97336.84
2022-09-14T03:45:48.700Z,97338.91
2022-09-14T03:48:21.006Z,97338.53
2022-09-14T03:50:50.646Z,97340.53
2022-09-14T03:53:20.376Z,97326.94
2022-09-14T03:55:50.157Z,97323.94
2022-09-14T03:58:19.814Z,97326.00
2022-09-14T04:00:49.514Z,97312.53
2022-09-14T04:03:22.056Z,97303.31
2022-09-14T04:05:58.199Z,97303.91
2022-09-14T04:08:27.916Z,97299.72
2022-09-14T04:10:57.593Z,97295.97
2022-09-14T04:13:27.319Z,97300.50
2022-09-14T04:16:01.100Z,97287.94
2022-09-14T04:18:33.555Z,97301.19
2022-09-14T04:21:08.232Z,97302.47
2022-09-14T04:24:03.057Z,97283.56
2022-09-14T04:26:31.471Z,97275.66
2022-09-14T04:29:01.728Z,97266.06
2022-09-14T04:31:33.005Z,97262.06
2022-09-14T04:34:05.321Z,97280.09
2022-09-14T04:36:35.216Z,97275.50
2022-09-14T04:39:07.172Z,97272.81
2022-09-14T04:41:36.798Z,97277.25
2022-09-14T04:44:06.406Z,97271.22
2022-09-14T04:46:45.114Z,97278.03
2022-09-14T04:49:21.632Z,97266.44
2022-09-14T04:51:51.685Z,97272.41
2022-09-14T04:54:22.229Z,97270.31
2022-09-14T04:56:52.034Z,97279.13
2022-09-14T04:59:21.757Z,97278.66
2022-09-14T05:01:51.678Z,97278.66
2022-09-14T05:04:24.035Z,97281.19
2022-09-14T05:06:53.940Z,97272.63
2022-09-14T05:09:23.710Z,97282.81
2022-09-14T05:11:53.373Z,97285.44
2022-09-14T05:14:23.081Z,97286.78
2022-09-14T05:16:52.825Z,97281.63
2022-09-14T05:19:25.065Z,97286.72
2022-09-14T05:21:54.741Z,97284.34
2022-09-14T05:24:24.518Z,97289.34
2022-09-14T05:26:59.568Z,97340.22
2022-09-14T05:29:32.089Z,97337.69
2022-09-14T05:32:01.790Z,97314.25
2022-09-14T05:34:34.077Z,97327.00
2022-09-14T05:37:03.799Z,97334.72
2022-09-14T05:39:33.485Z,97337.88
2022-09-14T05:42:03.120Z,97345.38
2022-09-14T05:44:32.821Z,97335.25
2022-09-14T05:47:02.477Z,97330.09
2022-09-14T05:49:34.961Z,97332.09
2022-09-14T05:52:05.358Z,97333.25
2022-09-14T05:54:35.014Z,97331.13
2022-09-14T05:57:04.720Z,97327.00
2022-09-14T05:59:34.423Z,97321.16
2022-09-14T06:02:04.192Z,97306.09
2022-09-14T06:04:36.404Z,97306.22
2022-09-14T06:07:18.506Z,97304.81
2022-09-14T06:09:48.745Z,97301.19
2022-09-14T06:12:18.824Z,97290.44
2022-09-14T06:14:48.440Z,97279.56
2022-09-14T06:17:18.108Z,97299.53
2022-09-14T06:19:50.306Z,97295.97
2022-09-14T06:22:20.114Z,97298.06
2022-09-14T06:24:49.666Z,97306.25
2022-09-14T06:27:19.485Z,97311.34
2022-09-14T06:29:52.167Z,97314.31
2022-09-14T06:32:23.328Z,97314.63
2022-09-14T06:34:55.543Z,97320.16
2022-09-14T06:37:25.208Z,97317.41
2022-09-14T06:39:54.842Z,97315.31
2022-09-14T06:42:24.666Z,97311.63
2022-09-14T06:44:54.314Z,97314.88
2022-09-14T06:47:23.995Z,97307.50
2022-09-14T06:49:56.237Z,97305.97
2022-09-14T06:52:26.706Z,97302.25
2022-09-14T06:54:58.338Z,97294.84
2022-09-14T06:57:28.046Z,97283.59
2022-09-14T06:59:57.683Z,97282.97
2022-09-14T07:02:27.349Z,97291.13
2022-09-14T07:05:00.211Z,97291.16
2022-09-14T07:07:29.960Z,97293.63
2022-09-14T07:09:59.619Z,97288.84
2022-09-14T07:12:30.477Z,97283.31
2022-09-14T07:15:00.147Z,97289.19
2022-09-14T07:17:29.854Z,97291.53
2022-09-14T07:20:02.236Z,97288.84
2022-09-14T07:22:32.055Z,97304.59
2022-09-14T07:25:01.714Z,97307.88
2022-09-14T07:27:31.458Z,97314.34
2022-09-14T07:30:01.102Z,97305.97
2022-09-14T07:32:30.703Z,97312.00
2022-09-14T07:35:02.923Z,97312.47
2022-09-14T07:37:32.849Z,97300.72
2022-09-14T07:40:02.576Z,97318.63
2022-09-14T07:42:32.288Z,97309.38
2022-09-14T07:45:01.959Z,97307.75
2022-09-14T07:47:31.562Z,97313.13
2022-09-14T07:50:03.825Z,97320.97
2022-09-14T07:52:37.998Z,97325.25
2022-09-14T07:55:12.524Z,97321.41
2022-09-14T07:57:55.672Z,97320.28
2022-09-14T08:00:26.490Z,97316.47
2022-09-14T08:02:58.074Z,97318.44
2022-09-14T08:05:30.338Z,97326.72
2022-09-14T08:07:59.977Z,97325.03
2022-09-14T08:10:29.739Z,97326.84
2022-09-14T08:12:59.469Z,97338.13
2022-09-14T08:15:29.254Z,97341.63
2022-09-14T08:17:58.907Z,97349.63
2022-09-14T08:20:31.079Z,97354.25
2022-09-14T08:23:02.239Z,97353.47
2022-09-14T08:25:31.880Z,97349.34
2022-09-14T08:28:01.524Z,97354.66
2022-09-14T08:30:31.147Z,97347.13
2022-09-14T08:33:02.014Z,97360.66
2022-09-14T08:35:56.355Z,97365.34
2022-09-14T08:38:24.471Z,97379.28
2022-09-14T08:40:54.363Z,97370.78
2022-09-14T08:43:27.344Z,97357.03
2022-09-14T08:46:06.298Z,97357.81
2022-09-14T08:48:39.851Z,97376.50
2022-09-14T08:51:12.267Z,97400.25
2022-09-14T08:53:44.258Z,97403.66
2022-09-14T08:56:18.402Z,97407.19
2022-09-14T08:59:10.818Z,97415.50
2022-09-14T09:01:48.866Z,97409.84
2022-09-14T09:04:37.671Z,97404.34
2022-09-14T09:07:18.019Z,97398.06
2022-09-14T09:09:49.932Z,97371.09
2022-09-14T09:12:24.243Z,97369.88
2022-09-14T09:14:57.393Z,97357.13
2022-09-14T09:17:33.925Z,97365.84
2022-09-14T09:20:09.736Z,97378.53
2022-09-14T09:22:46.034Z,97382.97
2022-09-14T09:25:23.381Z,97386.63
2022-09-14T09:27:53.551Z,97386.25
2022-09-14T09:30:23.301Z,97379.19
2022-09-14T09:32:53.602Z,97387.25
2022-09-14T09:35:26.952Z,97380.69
2022-09-14T09:37:59.180Z,97376.59
2022-09-14T09:40:34.615Z,97369.16
2022-09-14T09:43:09.509Z,97368.81
2022-09-14T09:45:54.845Z,97361.31
2022-09-14T09:48:28.932Z,97356.22
2022-09-14T09:51:09.666Z,97353.88
2022-09-14T09:53:50.123Z,97363.13
2022-09-14T09:56:23.038Z,97357.19
2022-09-14T09:58:52.817Z,97345.34
2022-09-14T10:01:25.780Z,97344.09
2022-09-14T10:04:05.404Z,97332.38
2022-09-14T10:06:35.516Z,97321.84
2022-09-14T10:09:15.928Z,97321.19
2022-09-14T10:11:46.041Z,97314.00
2022-09-14T10:14:26.580Z,97309.59
2022-09-14T10:16:56.679Z,97310.97
2022-09-14T10:19:30.661Z,97297.84
2022-09-14T10:22:20.931Z,97295.22
2022-09-14T10:25:02.012Z,97292.34
2022-09-14T10:27:41.487Z,97295.34
2022-09-14T10:30:18.452Z,97291.09
2022-09-14T10:32:55.395Z,97292.97
2022-09-14T10:35:30.473Z,97294.44
2022-09-14T10:38:16.093Z,97282.47
2022-09-14T10:40:56.216Z,97273.31
2022-09-14T10:43:39.007Z,97279.56
2022-09-14T10:46:15.274Z,97276.69
2022-09-14T10:48:55.342Z,97270.72
2022-09-14T10:51:43.043Z,97261.66
2022-09-14T10:54:29.509Z,97258.59
2022-09-14T10:57:20.347Z,97262.88
2022-09-14T10:59:56.255Z,97252.72
2022-09-14T11:02:43.374Z,97247.84
2022-09-14T11:05:18.670Z,97246.44
2022-09-14T11:08:03.357Z,97239.16
2022-09-14T11:10:39.360Z,97236.63
2022-09-14T11:13:28.188Z,97231.53
2022-09-14T11:16:07.482Z,97228.78
2022-09-14T11:18:45.968Z,97224.97
2022-09-14T11:21:24.014Z,97230.59
2022-09-14T11:23:58.623Z,97221.88
2022-09-14T11:26:33.256Z,97207.94
2022-09-14T11:29:21.847Z,97213.88
2022-09-14T11:32:19.261Z,97210.03
2022-09-14T11:34:54.947Z,97207.75
2022-09-14T11:37:33.553Z,97207.50
2022-09-14T11:40:11.215Z,97211.31
2022-09-14T11:42:47.410Z,97206.22
2022-09-14T11:45:25.442Z,97205.97
2022-09-14T11:48:02.881Z,97196.53
2022-09-14T11:50:35.353Z,97204.44
2022-09-14T11:53:14.412Z,97196.56
2022-09-14T11:55:48.791Z,97198.06
2022-09-14T11:58:23.703Z,97206.47
2022-09-14T12:01:32.052Z,97195.25
2022-09-14T12:04:20.404Z,97194.44
2022-09-14T12:06:58.457Z,97197.44
2022-09-14T12:09:41.667Z,97207.09
2022-09-14T12:12:40.042Z,97205.75
2022-09-14T12:15:37.005Z,97212.72
2022-09-14T12:18:28.005Z,97208.06
2022-09-14T12:21:09.424Z,97208.16
2022-09-14T12:23:51.937Z,97213.22
2022-09-14T12:26:39.644Z,97211.31
2022-09-14T12:29:30.186Z,97201.38
2022-09-14T12:32:26.788Z,97217.06
2022-09-14T12:35:26.424Z,97218.31
2022-09-14T12:37:58.633Z,97216.59
2022-09-14T12:40:48.986Z,97223.16
2022-09-14T12:43:49.057Z,97224.78
2022-09-14T12:46:36.008Z,97234.59
2022-09-14T12:49:17.459Z,97225.28
2022-09-14T12:51:51.397Z,97229.09
2022-09-14T12:54:29.656Z,97226.22
2022-09-14T12:57:09.025Z,97225.34
2022-09-14T12:59:47.940Z,97241.06
2022-09-14T13:02:48.356Z,97250.72
2022-09-14T13:05:20.665Z,97259.84
2022-09-14T13:07:50.314Z,97272.41
2022-09-14T13:10:28.848Z,97263.97
2022-09-14T13:12:59.137Z,97264.44
2022-09-14T13:15:32.860Z,97263.34
2022-09-14T13:18:04.175Z,97267.41
2022-09-14T13:20:36.059Z,97264.41
2022-09-14T13:23:06.239Z,97256.53
2022-09-14T13:25:40.731Z,97267.47
2022-09-14T13:28:17.879Z,97272.44
2022-09-14T13:30:57.542Z,97293.72
2022-09-14T13:33:27.903Z,97301.28
2022-09-14T13:35:59.920Z,97308.91
2022-09-14T13:38:33.598Z,97314.66
2022-09-14T13:41:13.372Z,97308.72
2022-09-14T13:43:44.777Z,97318.03
2022-09-14T13:46:19.682Z,97307.38
2022-09-14T13:48:50.434Z,97318.06
2022-09-14T13:51:25.967Z,97325.94
2022-09-14T13:53:57.507Z,97319.59
2022-09-14T13:56:32.711Z,97317.03
2022-09-14T13:59:21.822Z,97313.19
2022-09-14T14:01:59.039Z,97307.94
2022-09-14T14:04:37.377Z,97296.88
2022-09-14T14:07:19.599Z,97289.47
2022-09-14T14:09:52.505Z,97285.00
2022-09-14T14:12:30.455Z,97275.13
2022-09-14T14:15:01.829Z,97272.19
2022-09-14T14:17:37.441Z,97270.50
2022-09-14T14:20:33.188Z,97261.25
2022-09-14T14:23:16.797Z,97258.16
2022-09-14T14:25:48.991Z,97252.59
2022-09-14T14:28:25.578Z,97252.16
2022-09-14T14:30:56.763Z,97254.63
2022-09-14T14:33:26.591Z,97261.88
2022-09-14T14:35:57.999Z,97268.38
2022-09-14T14:38:28.107Z,97268.94
2022-09-14T14:40:58.701Z,97270.16
2022-09-14T14:43:31.445Z,97278.03
2022-09-14T14:46:02.862Z,97289.88
2022-09-14T14:48:32.767Z,97298.22
2022-09-14T14:51:02.624Z,97301.03
2022-09-14T14:53:32.251Z,97300.72
2022-09-14T14:56:01.893Z,97319.09
2022-09-14T14:58:36.400Z,97309.78
2022-09-14T15:01:06.308Z,97315.38
2022-09-14T15:03:36.061Z,97313.03
2022-09-14T15:06:15.171Z,97305.06
2022-09-14T15:08:45.401Z,97298.69
2022-09-14T15:11:19.391Z,97295.44
2022-09-14T15:13:52.281Z,97289.75
2022-09-14T15:16:22.005Z,97288.22
2022-09-14T15:18:51.858Z,97274.91
2022-09-14T15:21:21.511Z,97282.47
2022-09-14T15:23:51.698Z,97269.97
2022-09-14T15:26:21.321Z,97268.31
2022-09-14T15:28:53.603Z,97271.06
2022-09-14T15:31:23.608Z,97269.09
2022-09-14T15:33:53.309Z,97267.72
2022-09-14T15:36:38.631Z,97249.19
2022-09-14T15:39:09.644Z,97223.78
2022-09-14T15:41:39.246Z,97214.97
2022-09-14T15:44:12.068Z,97220.66
2022-09-14T15:46:43.983Z,97214.59
2022-09-14T15:49:18.117Z,97199.75
2022-09-14T15:51:52.904Z,97180.69
2022-09-14T15:54:25.902Z,97181.84
2022-09-14T15:56:59.462Z,97178.25
2022-09-14T15:59:32.281Z,97187.97
2022-09-14T16:02:01.977Z,97202.59
2022-09-14T16:04:31.836Z,97196.13
2022-09-14T16:07:02.103Z,97196.88
2022-09-14T16:09:32.010Z,97193.66
2022-09-14T16:12:02.134Z,97189.78
2022-09-14T16:14:34.399Z,97182.84
2022-09-14T16:17:04.536Z,97181.97
2022-09-14T16:19:34.915Z,97160.84
2022-09-14T16:22:04.702Z,97171.19
2022-09-14T16:24:34.380Z,97181.53
2022-09-14T16:27:04.066Z,97171.72
2022-09-14T16:29:36.220Z,97176.78
2022-09-14T16:32:06.073Z,97178.03
2022-09-14T16:34:35.699Z,97190.09
2022-09-14T16:37:05.363Z,97201.78
2022-09-14T16:39:35.219Z,97206.44
2022-09-14T16:42:05.467Z,97212.91
2022-09-14T16:44:37.728Z,97217.53
2022-09-14T16:47:07.507Z,97222.44
2022-09-14T16:49:37.282Z,97222.44
2022-09-14T16:52:06.962Z,97217.84
2022-09-14T16:54:36.603Z,97222.91
2022-09-14T16:57:06.562Z,97239.72
2022-09-14T16:59:39.057Z,97223.69
2022-09-14T17:02:09.227Z,97230.16
2022-09-14T17:04:38.990Z,97218.75
2022-09-14T17:07:08.708Z,97222.63
2022-09-14T17:09:38.415Z,97219.38
2022-09-14T17:12:08.708Z,97222.47
2022-09-14T17:14:40.952Z,97209.06
2022-09-14T17:17:10.592Z,97215.69
2022-09-14T17:19:43.539Z,97210.88
2022-09-14T17:22:14.151Z,97225.84
2022-09-14T17:24:43.780Z,97226.63
2022-09-14T17:27:13.379Z,97230.94
2022-09-14T17:29:46.733Z,97233.88
2022-09-14T17:32:16.366Z,97229.56
2022-09-14T17:34:46.967Z,97230.94
2022-09-14T17:37:16.595Z,97226.16
2022-09-14T17:39:46.471Z,97224.00
2022-09-14T17:42:16.177Z,97226.16
2022-09-14T17:44:48.378Z,97215.31
2022-09-14T17:47:18.063Z,97219.94
2022-09-14T17:49:47.662Z,97222.56
2022-09-14T17:52:17.293Z,97227.19
2022-09-14T17:54:46.919Z,97222.56
2022-09-14T17:57:16.575Z,97213.63
2022-09-14T17:59:49.438Z,97226.16
2022-09-14T18:02:19.051Z,97213.16
2022-09-14T18:04:49.775Z,97223.94
2022-09-14T18:07:19.387Z,97225.63
2022-09-14T18:09:49.263Z,97219.91
2022-09-14T18:12:20.146Z,97222.25
2022-09-14T18:14:52.885Z,97223.59
2022-09-14T18:17:22.503Z,97227.31
2022-09-14T18:19:54.441Z,97226.97
2022-09-14T18:22:24.118Z,97238.72
2022-09-14T18:24:53.737Z,97229.78
2022-09-14T18:27:23.318Z,97230.06
2022-09-14T18:29:56.009Z,97244.09
2022-09-14T18:32:25.654Z,97230.25
2022-09-14T18:34:55.309Z,97234.72
2022-09-14T18:37:25.702Z,97234.25
2022-09-14T18:39:55.513Z,97239.34
2022-09-14T18:42:25.260Z,97238.44
2022-09-14T18:44:57.541Z,97242.28
2022-09-14T18:47:27.340Z,97240.13
2022-09-14T18:49:57.094Z,97240.75
2022-09-14T18:52:26.762Z,97233.50
2022-09-14T18:54:56.442Z,97234.72
2022-09-14T18:57:26.281Z,97237.19
2022-09-14T18:59:58.593Z,97238.72
2022-09-14T19:02:28.384Z,97249.19
2022-09-14T19:04:58.027Z,97242.09
2022-09-14T19:07:28.283Z,97229.31
2022-09-14T19:09:58.834Z,97244.53
2022-09-14T19:12:28.614Z,97239.00
2022-09-14T19:15:00.792Z,97246.38
2022-09-14T19:17:31.263Z,97238.53
2022-09-14T19:20:01.057Z,97237.56
2022-09-14T19:22:31.999Z,97234.22
2022-09-14T19:25:01.687Z,97245.50
2022-09-14T19:27:31.440Z,97249.19
2022-09-14T19:30:03.940Z,97241.31
2022-09-14T19:32:33.626Z,97248.88
2022-09-14T19:35:03.249Z,97245.59
2022-09-14T19:37:32.913Z,97243.59
2022-09-14T19:40:02.592Z,97247.75
2022-09-14T19:42:32.319Z,97253.72
2022-09-14T19:45:04.575Z,97258.22
2022-09-14T19:47:34.350Z,97257.88
2022-09-14T19:50:04.021Z,97258.31
2022-09-14T19:52:33.774Z,97265.44
2022-09-14T19:55:03.529Z,97267.56
2022-09-14T19:57:34.276Z,97265.44
2022-09-14T20:00:09.307Z,97255.56
2022-09-14T20:02:39.072Z,97255.88
2022-09-14T20:05:10.796Z,97264.38
2022-09-14T20:07:40.441Z,97270.66
2022-09-14T20:10:12.378Z,97272.66
2022-09-14T20:12:42.073Z,97272.50
2022-09-14T20:15:15.186Z,97279.59
2022-09-14T20:17:44.861Z,97283.59
2022-09-14T20:20:15.920Z,97282.81
2022-09-14T20:22:45.814Z,97283.56
2022-09-14T20:25:15.488Z,97283.91
2022-09-14T20:27:45.189Z,97286.50
2022-09-14T20:30:18.741Z,97289.38
2022-09-14T20:32:48.400Z,97284.41
2022-09-14T20:35:18.582Z,97282.88
2022-09-14T20:37:48.319Z,97291.56
2022-09-14T20:40:18.077Z,97294.06
2022-09-14T20:42:47.680Z,97295.50
2022-09-14T20:45:20.277Z,97285.97
2022-09-14T20:47:49.877Z,97293.31
2022-09-14T20:50:19.731Z,97295.91
2022-09-14T20:52:49.336Z,97289.19
2022-09-14T20:55:18.973Z,97307.94
2022-09-14T20:57:48.526Z,97299.72
2022-09-14T21:00:20.994Z,97297.91
2022-09-14T21:02:53.978Z,97300.94
2022-09-14T21:05:23.598Z,97293.31
2022-09-14T21:07:56.319Z,97297.06
2022-09-14T21:10:29.337Z,97295.56
2022-09-14T21:12:59.299Z,97287.50
2022-09-14T21:15:31.565Z,97278.88
2022-09-14T21:18:01.222Z,97282.75
2022-09-14T21:20:31.530Z,97282.06
2022-09-14T21:23:01.204Z,97272.22
2022-09-14T21:25:30.910Z,97271.69
2022-09-14T21:28:00.798Z,97258.69
2022-09-14T21:30:33.919Z,97273.75
2022-09-14T21:33:03.567Z,97275.28
2022-09-14T21:35:33.795Z,97272.50
2022-09-14T21:38:03.712Z,97275.13
2022-09-14T21:40:33.471Z,97281.13
2022-09-14T21:43:03.127Z,97279.75
2022-09-14T21:45:35.377Z,97273.75
2022-09-14T21:48:05.434Z,97265.97
2022-09-14T21:50:35.153Z,97259.22
2022-09-14T21:53:04.842Z,97259.22
2022-09-14T21:55:34.879Z,97256.25
2022-09-14T21:58:04.653Z,97265.19
2022-09-14T22:00:38.413Z,97252.88
2022-09-14T22:03:11.454Z,97262.81
2022-09-14T22:05:41.507Z,97266.34
2022-09-14T22:08:11.224Z,97261.47
2022-09-14T22:10:41.596Z,97266.13
2022-09-14T22:13:11.283Z,97257.56
2022-09-14T22:15:43.782Z,97272.44
2022-09-14T22:18:14.335Z,97270.31
2022-09-14T22:20:44.540Z,97251.28
2022-09-14T22:23:14.304Z,97264.84
2022-09-14T22:25:44.415Z,97267.03
2022-09-14T22:28:14.759Z,97268.63
2022-09-14T22:30:49.921Z,97275.97
2022-09-14T22:33:19.672Z,97277.66
2022-09-14T22:35:55.039Z,97290.59
2022-09-14T22:38:26.220Z,97282.53
2022-09-14T22:40:59.284Z,97302.38
2022-09-14T22:43:29.949Z,97293.88
2022-09-14T22:46:02.750Z,97297.47
2022-09-14T22:48:32.559Z,97296.31
2022-09-14T22:51:03.763Z,97293.75
2022-09-14T22:53:34.138Z,97285.22
2022-09-14T22:56:10.923Z,97302.41
2022-09-14T22:58:41.041Z,97300.28
2022-09-14T23:01:16.446Z,97304.03
2022-09-14T23:03:46.586Z,97309.25
2022-09-14T23:06:16.681Z,97297.47
2022-09-14T23:08:47.381Z,97294.34
2022-09-14T23:11:17.018Z,97289.88
2022-09-14T23:13:46.622Z,97299.50
2022-09-14T23:16:21.137Z,97292.88
2022-09-14T23:18:53.582Z,97302.59
2022-09-14T23:21:23.716Z,97320.56
2022-09-14T23:23:54.924Z,97312.19
2022-09-14T23:26:25.599Z,97319.66
2022-09-14T23:28:56.478Z,97317.22
2022-09-14T23:31:29.328Z,97320.63
2022-09-14T23:34:01.121Z,97316.50
2022-09-14T23:36:30.940Z,97316.72
2022-09-14T23:39:00.933Z,97329.56
2022-09-14T23:41:31.333Z,97331.06
2022-09-14T23:44:00.945Z,97326.41
2022-09-14T23:46:33.230Z,97337.06
2022-09-14T23:49:03.244Z,97336.78
2022-09-14T23:51:33.313Z,97340.50
2022-09-14T23:54:02.906Z,97342.81
2022-09-14T23:56:32.548Z,97340.38
2022-09-14T23:59:02.186Z,97332.84
